SBOSBO CWL / EGFF
Speedbird OnlineSpeedbird Online CWL / EGFF

Cardiff International Airport
04:54 5.4°C

Location Cardiff, United Kingdom
Latitude: 51.39670181274414
Longitude: -3.343329906463623
Local Time 04:54 on 24 Apr 2024
UTC +1 hours (Europe/London)
METAR EGFF 240220Z AUTO 02004KT 9999 BKN046 06/03 Q1020
TAF TAF EGFF 232257Z 2400/2424 02005KT 9999 SCT040 BECMG 2415/2418 25010KT BECMG 2421/2424 31010KT
Weather As Of 24 Apr 2024 04:00
Description Broken clouds
Wind 7 km/h from North (20°)
Cloud Cover 75%
Precipitation Rain: none, Snow: none
Sunrise 05:58
Sunset 20:24
NOTAM 2 active NOTAM
Rotations During the last 90 days there were
10 flights from LHR
2 flights from LGW
2 flights from CWL
9 flights to LHR
4 flights to LGW
2 flights to CWL
Lounges 51° Business and Executive Lounge, Main Terminal
Web Airport Website | Wikipedia
Codes IATA: CWL
ICAO: EGFF
Altitude 67 Meter / 220 Feet
Distance 241 KM / 150 Miles
from London.
Runways
RunwayLength (m)Surface
122354Asphalt
302354Asphalt
Radio
TypeDescriptionFrequency
APPCardiff App119.15
APPCardiff Radar125.85
ATISATIS132.475
Radar133.6
TWRCardiff Twr133.1
Live ATC



Support Speedbird Online

© 2017-2024 Speedbird Online